Aviation Digital Data Service (ADDS)

Output produced by METARs form (0052 UTC 21 November 2017)
found at http://www.aviationweather.gov/adds/metars/
 
EPGD 210030Z 26003KT 9999 FEW021 M02/M02 Q1010
TAF EPGD 202330Z 2100/2124 26006KT 9999 SCT018 
     PROB40 2102/2108 3000 BR BKN005 
     BECMG 2115/2118 2000 BR BKN004 
     PROB40 2118/2124 0500 FZFG OVC002